Time;durP1;ratioP1;P1;durP2;ratioP2;P2;SDS_P1;SDS_P2;PMS_P1;PMS_P2;Temp;Humidity;BMP_temperature;BMP_pressure;BME280_temperature;BME280_humidity;BME280_pressure;Samples;Min_cycle;Max_cycle;Signal;HPM_P1;HPM_P2
2022/10/29 00:00:41;;;;;;;6.40;3.60;;;14.70;99.90;;;14.45;100.00;97990.06;5023742;23;20263;-61
2022/10/29 00:03:06;;;;;;;10.20;3.03;;;14.70;99.90;;;14.42;100.00;97987.53;5013038;28;20029;-61
2022/10/29 00:05:33;;;;;;;9.80;3.03;;;14.70;99.90;;;14.40;100.00;97984.94;5009134;28;20091;-61
2022/10/29 00:07:59;;;;;;;8.70;2.83;;;14.70;99.90;;;14.40;100.00;97989.41;5011532;28;20021;-62
2022/10/29 00:10:25;;;;;;;5.97;2.83;;;14.70;99.90;;;14.24;100.00;97960.88;4992748;28;20038;-62
2022/10/29 00:12:51;;;;;;;6.00;2.90;;;14.60;99.90;;;14.26;100.00;97964.31;4995614;28;20072;-61
2022/10/29 00:15:17;;;;;;;7.05;3.22;;;14.70;99.90;;;14.33;100.00;97976.38;4990693;28;20116;-61
2022/10/29 00:17:42;;;;;;;7.97;2.90;;;14.60;99.90;;;14.28;100.00;97982.81;4992201;28;20034;-61
2022/10/29 00:20:08;;;;;;;6.28;2.75;;;14.60;99.90;;;14.23;100.00;97974.19;4999259;28;20058;-60
2022/10/29 00:22:34;;;;;;;8.25;3.30;;;14.50;99.90;;;14.16;100.00;97973.59;4999249;28;20043;-61
2022/10/29 00:25:00;;;;;;;7.97;3.42;;;14.40;99.90;;;14.07;100.00;97969.56;4997591;28;20030;-61
2022/10/29 00:27:25;;;;;;;10.02;3.83;;;14.40;99.90;;;13.98;100.00;97969.06;5002870;28;20542;-61
2022/10/29 00:29:51;;;;;;;8.77;3.88;;;14.30;99.90;;;13.91;100.00;97971.97;5002443;28;20069;-61
2022/10/29 00:32:17;;;;;;;12.57;4.55;;;14.20;99.90;;;13.83;100.00;97970.56;4999569;28;21288;-61
2022/10/29 00:34:43;;;;;;;13.35;4.93;;;14.10;99.90;;;13.77;100.00;97971.69;5003990;28;20048;-61
2022/10/29 00:37:08;;;;;;;9.75;4.50;;;14.00;99.90;;;13.72;100.00;97976.28;4998262;28;20049;-61
2022/10/29 00:39:34;;;;;;;9.98;4.13;;;14.00;99.90;;;13.69;100.00;97974.66;4993946;28;20029;-62
2022/10/29 00:42:01;;;;;;;7.63;4.25;;;14.00;99.90;;;13.66;100.00;97973.91;5001826;28;20107;-62
2022/10/29 00:44:34;;;;;;;7.65;4.22;;;13.90;99.90;;;13.63;100.00;97974.03;5001510;28;20606;-62
2022/10/29 00:47:28;;;;;;;9.05;4.05;;;13.90;99.90;;;13.59;100.00;97969.78;4989343;28;20054;-62
2022/10/29 00:50:04;;;;;;;8.05;3.72;;;13.80;99.90;;;13.52;100.00;97969.16;4998061;28;20042;-61
2022/10/29 00:52:33;;;;;;;9.45;4.18;;;13.80;99.90;;;13.45;100.00;97968.53;5003495;28;20060;-62
2022/10/29 00:55:02;;;;;;;8.18;3.55;;;13.70;99.90;;;13.45;100.00;97973.81;5004332;28;20527;-62
2022/10/29 00:57:36;;;;;;;6.75;3.30;;;13.70;99.90;;;13.45;100.00;97976.47;5007204;28;20425;-62
2022/10/29 01:00:02;;;;;;;7.18;3.40;;;13.70;99.90;;;13.44;100.00;97972.13;4998461;28;20029;-62
2022/10/29 01:02:30;;;;;;;11.13;3.63;;;13.70;99.90;;;13.40;100.00;97961.69;5004307;28;20033;-61
2022/10/29 01:04:56;;;;;;;8.90;3.83;;;13.70;99.90;;;13.44;100.00;97982.72;5001999;28;20463;-62
2022/10/29 01:07:23;;;;;;;6.20;3.50;;;13.70;99.90;;;13.43;100.00;97977.47;5009520;28;20037;-62
2022/10/29 01:09:49;;;;;;;6.72;3.25;;;13.70;99.90;;;13.39;100.00;97968.78;5004389;28;20041;-62
2022/10/29 01:13:01;;;;;;;7.63;3.28;;;13.70;99.90;;;13.42;100.00;97978.38;4987460;28;20089;-62
2022/10/29 01:15:51;;;;;;;7.15;3.38;;;13.70;99.90;;;13.36;100.00;97961.78;5002192;28;20038;-62
2022/10/29 01:18:20;;;;;;;6.28;3.50;;;13.60;99.90;;;13.42;100.00;97960.69;5007649;28;20073;-62
2022/10/29 01:21:33;;;;;;;11.13;3.97;;;13.70;99.90;;;13.45;100.00;97965.03;5004305;28;20692;-62
2022/10/29 01:24:45;;;;;;;6.40;3.80;;;13.70;99.90;;;13.48;100.00;97960.47;5007124;28;20026;-62
2022/10/29 01:27:55;;;;;;;7.43;3.22;;;13.80;99.90;;;13.58;100.00;97960.09;4998764;28;20511;-62
2022/10/29 01:30:43;;;;;;;6.82;3.40;;;13.80;99.90;;;13.63;100.00;97953.66;4986660;28;20045;-62
2022/10/29 01:33:46;;;;;;;9.23;3.80;;;13.90;99.90;;;13.69;100.00;97950.78;5007004;28;20514;-62
2022/10/29 01:36:17;;;;;;;12.20;4.30;;;14.00;99.90;;;13.74;100.00;97948.78;4999001;28;20507;-62
2022/10/29 01:39:11;;;;;;;6.50;3.50;;;14.00;99.90;;;13.77;100.00;97945.16;5007034;28;20034;-62
2022/10/29 01:41:41;;;;;;;6.15;3.60;;;14.10;99.90;;;13.79;100.00;97947.75;5004919;28;20033;-62
2022/10/29 01:44:36;;;;;;;9.55;3.60;;;14.10;99.90;;;13.75;100.00;97947.88;5005650;28;20099;-61
2022/10/29 01:47:15;;;;;;;10.23;3.67;;;14.10;99.90;;;13.70;100.00;97951.66;4996796;28;20033;-61
2022/10/29 01:49:45;;;;;;;8.88;3.95;;;14.00;99.90;;;13.64;100.00;97946.56;4997324;28;20556;-61
2022/10/29 01:52:15;;;;;;;9.50;4.10;;;13.90;99.90;;;13.57;100.00;97943.34;5016217;28;20037;-62
2022/10/29 01:54:44;;;;;;;14.18;3.20;;;13.90;99.90;;;13.48;100.00;97933.13;5003885;28;20064;-61
2022/10/29 01:57:35;;;;;;;9.27;3.72;;;13.90;99.90;;;13.46;100.00;97935.81;5004311;28;20117;-61
2022/10/29 02:00:12;;;;;;;9.65;3.60;;;13.80;99.90;;;13.45;100.00;97931.44;5004966;28;20032;-62
2022/10/29 02:03:04;;;;;;;8.63;3.53;;;13.80;99.90;;;13.46;100.00;97926.97;5005340;28;20037;-60
2022/10/29 02:06:19;;;;;;;7.90;3.53;;;13.80;99.90;;;13.46;100.00;97934.94;5007256;28;20033;-60
2022/10/29 02:09:10;;;;;;;7.72;3.45;;;13.80;99.90;;;13.34;100.00;97908.00;5004648;28;20032;-60
2022/10/29 02:11:57;;;;;;;7.82;3.65;;;13.70;99.90;;;13.45;100.00;97923.47;4996395;28;20049;-60
2022/10/29 02:14:44;;;;;;;8.30;3.50;;;13.80;99.90;;;13.49;100.00;97918.91;5002835;28;20051;-60
2022/10/29 02:17:09;;;;;;;8.02;3.35;;;13.80;99.90;;;13.55;100.00;97918.69;4998126;28;20061;-60
2022/10/29 02:19:36;;;;;;;8.57;3.45;;;13.80;99.90;;;13.55;100.00;97894.84;4999411;28;20230;-60
2022/10/29 02:22:01;;;;;;;6.43;3.40;;;13.90;99.90;;;13.70;100.00;97907.44;5005924;28;20049;-60
2022/10/29 02:24:27;;;;;;;14.30;3.60;;;14.00;99.90;;;13.76;100.00;97908.97;5006900;28;20236;-60
2022/10/29 02:26:53;;;;;;;6.70;3.15;;;14.00;99.90;;;13.80;100.00;97901.75;5004665;28;20139;-61
2022/10/29 02:29:19;;;;;;;5.65;3.20;;;14.10;99.90;;;13.78;100.00;97888.56;4999023;28;20505;-61
2022/10/29 02:31:45;;;;;;;7.32;3.50;;;14.10;99.90;;;13.86;100.00;97896.22;5007660;28;20033;-60
2022/10/29 02:34:10;;;;;;;10.73;3.42;;;14.20;99.90;;;13.83;100.00;97901.63;5001757;28;20155;-60
2022/10/29 02:36:36;;;;;;;6.57;3.03;;;14.10;99.90;;;13.84;100.00;97900.72;5006726;28;20030;-60
2022/10/29 02:39:02;;;;;;;5.47;3.08;;;14.10;99.90;;;13.83;100.00;97891.88;5004329;28;20075;-60
2022/10/29 02:41:28;;;;;;;8.32;3.40;;;14.10;99.90;;;13.83;100.00;97893.69;5005008;28;20125;-60
2022/10/29 02:43:53;;;;;;;6.07;3.05;;;14.20;99.90;;;13.84;100.00;97893.63;5006018;28;20120;-60
2022/10/29 02:46:22;;;;;;;9.40;3.70;;;14.10;99.90;;;13.88;100.00;97900.50;5000514;28;20699;-60
2022/10/29 02:48:48;;;;;;;9.90;3.75;;;14.20;99.90;;;13.91;100.00;97900.38;5007424;28;20125;-60
2022/10/29 02:51:16;;;;;;;8.88;3.22;;;14.20;99.90;;;13.96;100.00;97897.53;5007346;28;20025;-61
2022/10/29 02:53:42;;;;;;;10.25;3.60;;;14.20;99.90;;;14.00;100.00;97899.13;4995374;28;20034;-60
2022/10/29 02:56:08;;;;;;;7.90;3.53;;;14.30;99.90;;;14.03;100.00;97892.81;4999665;28;20049;-62
2022/10/29 02:58:34;;;;;;;11.23;3.58;;;14.30;99.90;;;14.04;100.00;97889.25;4996738;28;20029;-62
2022/10/29 03:01:00;;;;;;;8.05;3.40;;;14.30;99.90;;;14.01;100.00;97878.78;5001783;28;20035;-62
2022/10/29 03:03:26;;;;;;;8.10;3.03;;;14.30;99.90;;;14.01;100.00;97874.31;5004934;28;20034;-61
2022/10/29 03:05:52;;;;;;;6.82;3.03;;;14.30;99.90;;;14.01;100.00;97878.78;5006421;28;20037;-61
2022/10/29 03:08:18;;;;;;;8.02;2.95;;;14.30;99.90;;;13.98;100.00;97879.78;5003800;28;20095;-61
2022/10/29 03:10:44;;;;;;;9.07;3.40;;;14.30;99.90;;;13.97;100.00;97887.78;5003989;28;20651;-61
2022/10/29 03:13:10;;;;;;;6.13;3.55;;;14.30;99.90;;;13.97;100.00;97888.66;5001588;28;20563;-61
2022/10/29 03:15:37;;;;;;;6.10;2.53;;;14.20;99.90;;;13.98;100.00;97900.09;4999758;28;20036;-61
2022/10/29 03:18:03;;;;;;;7.95;3.40;;;14.20;99.90;;;13.94;100.00;97896.72;5008102;28;20106;-61
2022/10/29 03:20:30;;;;;;;7.32;3.65;;;14.30;99.90;;;13.99;100.00;97902.69;5003554;28;20036;-61
2022/10/29 03:22:56;;;;;;;6.18;3.30;;;14.30;99.90;;;13.99;100.00;97901.84;5004192;28;20034;-61
2022/10/29 03:25:21;;;;;;;6.05;3.63;;;14.30;99.90;;;13.84;100.00;97877.72;5001416;28;20095;-61
2022/10/29 03:27:47;;;;;;;7.43;3.03;;;14.20;99.90;;;13.94;100.00;97902.03;4992070;28;20400;-61
2022/10/29 03:30:15;;;;;;;9.23;3.60;;;14.20;99.90;;;13.92;100.00;97896.78;5001535;28;20040;-61
2022/10/29 03:32:43;;;;;;;6.20;3.30;;;14.20;99.90;;;13.89;100.00;97898.72;5000898;28;20026;-61
2022/10/29 03:35:11;;;;;;;9.35;3.47;;;14.20;99.90;;;13.89;100.00;97896.06;4999469;28;20116;-61
2022/10/29 03:37:37;;;;;;;8.07;3.33;;;14.20;99.90;;;13.86;100.00;97893.56;5007581;28;20037;-61
2022/10/29 03:40:04;;;;;;;6.80;3.30;;;14.10;99.90;;;13.82;100.00;97894.59;4997777;28;20036;-61
2022/10/29 03:42:30;;;;;;;6.78;3.30;;;14.10;99.90;;;13.76;100.00;97885.09;4998925;28;20121;-61
2022/10/29 03:45:00;;;;;;;7.93;3.55;;;14.00;99.90;;;13.72;100.00;97878.22;4994985;28;20034;-61
2022/10/29 03:47:27;;;;;;;7.95;3.13;;;14.00;99.90;;;13.68;100.00;97881.94;4995334;28;20037;-61
2022/10/29 03:49:53;;;;;;;12.10;3.25;;;14.00;99.90;;;13.66;100.00;97889.09;4996830;28;20112;-61
2022/10/29 03:52:19;;;;;;;9.32;3.63;;;13.90;99.90;;;13.61;100.00;97893.72;4996151;28;20108;-61
2022/10/29 03:54:45;;;;;;;9.05;3.55;;;13.90;99.90;;;13.56;100.00;97885.94;5005674;28;20067;-61
2022/10/29 03:57:11;;;;;;;4.97;3.42;;;13.90;99.90;;;13.52;100.00;97893.16;5000234;28;20030;-61
2022/10/29 03:59:36;;;;;;;9.15;3.65;;;13.80;99.90;;;13.47;100.00;97876.59;5006983;28;20112;-61
2022/10/29 04:02:02;;;;;;;9.07;3.40;;;13.80;99.90;;;13.49;100.00;97885.31;5000035;28;20033;-61
2022/10/29 04:04:28;;;;;;;8.05;3.75;;;13.80;99.90;;;13.48;100.00;97888.91;5007138;28;20080;-61
2022/10/29 04:06:53;;;;;;;8.50;3.70;;;13.80;99.90;;;13.50;100.00;97884.41;5003221;28;20057;-61
2022/10/29 04:09:19;;;;;;;11.55;3.80;;;13.80;99.90;;;13.53;100.00;97894.91;4998466;28;20065;-61
2022/10/29 04:11:45;;;;;;;7.03;3.30;;;13.80;99.90;;;13.42;100.00;97872.41;4983035;28;20061;-61
2022/10/29 04:14:10;;;;;;;7.90;3.45;;;13.80;99.90;;;13.55;100.00;97886.88;4998150;28;20084;-61
2022/10/29 04:16:36;;;;;;;7.80;4.10;;;13.80;99.90;;;13.54;100.00;97890.44;5002983;28;20068;-61
2022/10/29 04:19:03;;;;;;;8.35;3.75;;;13.80;99.90;;;13.52;100.00;97885.22;4996803;28;20033;-61
2022/10/29 04:21:28;;;;;;;9.48;3.72;;;13.80;99.90;;;13.50;100.00;97895.00;5001325;28;20754;-61
2022/10/29 04:23:54;;;;;;;10.00;3.60;;;13.80;99.90;;;13.46;100.00;97887.25;4989753;28;20042;-61
2022/10/29 04:26:20;;;;;;;7.72;3.60;;;13.70;99.90;;;13.42;100.00;97888.28;4998504;28;20116;-61
2022/10/29 04:28:50;;;;;;;6.97;3.20;;;13.70;99.90;;;13.36;100.00;97882.31;4995212;28;20030;-61
2022/10/29 04:31:16;;;;;;;6.43;3.22;;;13.70;99.90;;;13.33;100.00;97889.53;4988918;28;20026;-61
2022/10/29 04:33:41;;;;;;;10.13;4.13;;;13.60;99.90;;;13.30;100.00;97879.03;4998947;28;20108;-61
2022/10/29 04:36:07;;;;;;;7.75;3.30;;;13.60;99.90;;;13.27;100.00;97884.47;4995717;28;20465;-61
2022/10/29 04:38:33;;;;;;;12.52;3.97;;;13.60;99.90;;;13.19;100.00;97871.53;4998552;28;20599;-61
2022/10/29 04:41:00;;;;;;;5.90;3.38;;;13.50;99.90;;;13.13;100.00;97885.84;4993310;28;20060;-61
2022/10/29 04:43:27;;;;;;;11.27;3.50;;;13.50;99.90;;;13.10;100.00;97883.34;4993880;28;20037;-61
2022/10/29 04:45:55;;;;;;;10.60;3.70;;;13.40;99.90;;;13.03;100.00;97884.50;4994489;28;20121;-61
2022/10/29 04:48:23;;;;;;;9.05;4.38;;;13.40;99.90;;;12.98;100.00;97883.81;5003035;28;20347;-61
2022/10/29 04:50:49;;;;;;;6.35;3.40;;;13.30;99.90;;;12.90;100.00;97880.59;5004684;28;20116;-61
2022/10/29 04:53:15;;;;;;;10.32;3.40;;;13.20;99.90;;;12.84;100.00;97891.44;5002425;28;20037;-61
2022/10/29 04:55:41;;;;;;;10.60;3.70;;;13.20;99.90;;;12.81;100.00;97887.09;5003895;28;20017;-61
2022/10/29 04:58:11;;;;;;;8.00;3.50;;;13.20;99.90;;;12.79;100.00;97886.31;5007042;28;20033;-61
2022/10/29 05:00:37;;;;;;;9.15;3.30;;;13.10;99.90;;;12.73;100.00;97897.13;4997846;28;20037;-61
2022/10/29 05:03:03;;;;;;;10.85;3.42;;;13.00;99.90;;;12.66;100.00;97885.91;4998471;28;20190;-61
2022/10/29 05:05:28;;;;;;;6.18;3.60;;;13.00;99.90;;;12.60;100.00;97886.16;4997802;28;20042;-61
2022/10/29 05:08:02;;;;;;;8.68;3.63;;;12.90;99.90;;;12.55;100.00;97888.97;5002967;28;20513;-61
2022/10/29 05:10:31;;;;;;;8.60;3.83;;;12.80;99.90;;;12.50;100.00;97888.25;5001587;28;20122;-61
2022/10/29 05:13:06;;;;;;;11.27;3.53;;;12.80;99.90;;;12.46;100.00;97888.44;5008313;28;20124;-61
2022/10/29 05:15:33;;;;;;;8.65;3.72;;;12.80;99.90;;;12.43;100.00;97892.03;5001501;28;20037;-61
2022/10/29 05:17:59;;;;;;;7.30;3.40;;;12.80;99.90;;;12.39;100.00;97891.28;5010052;28;20462;-61
2022/10/29 05:20:26;;;;;;;6.18;3.30;;;12.70;99.90;;;12.34;100.00;97890.59;5004502;28;20400;-61
2022/10/29 05:22:59;;;;;;;7.38;3.47;;;12.60;99.90;;;12.30;100.00;97885.50;4995750;28;20053;-61
2022/10/29 05:25:26;;;;;;;10.25;3.72;;;12.60;99.90;;;12.26;100.00;97892.66;5003860;28;20083;-61
2022/10/29 05:28:17;;;;;;;7.00;3.63;;;12.60;99.90;;;12.19;100.00;97885.88;5002345;28;20449;-61
2022/10/29 05:30:43;;;;;;;12.48;3.55;;;12.50;99.90;;;12.15;100.00;97881.59;5007442;28;20058;-61
2022/10/29 05:33:13;;;;;;;6.22;3.55;;;12.50;99.90;;;12.09;100.00;97887.09;5011218;28;20117;-61
2022/10/29 05:35:39;;;;;;;9.02;3.55;;;12.50;99.90;;;12.03;100.00;97888.19;5007049;28;20354;-61
2022/10/29 05:38:05;;;;;;;7.80;3.90;;;12.40;99.90;;;12.02;100.00;97884.69;5005744;28;20487;-61
2022/10/29 05:40:31;;;;;;;7.82;3.40;;;12.30;99.90;;;11.98;100.00;97882.19;5006110;28;20032;-61
2022/10/29 05:42:57;;;;;;;7.78;3.95;;;12.30;99.90;;;11.93;100.00;97878.84;5001516;28;20049;-67
2022/10/29 05:45:23;;;;;;;6.07;3.63;;;12.30;99.90;;;11.87;100.00;97885.19;5010219;28;20033;-65
2022/10/29 05:47:58;;;;;;;7.32;3.90;;;12.20;99.90;;;11.82;100.00;97882.69;5003721;28;20034;-65
2022/10/29 05:50:24;;;;;;;9.38;4.25;;;12.20;99.90;;;11.77;100.00;97887.28;5008268;28;20119;-65
2022/10/29 05:52:58;;;;;;;7.47;4.50;;;12.10;99.90;;;11.74;100.00;97878.59;5009552;28;20034;-65
2022/10/29 05:55:25;;;;;;;9.98;4.10;;;12.10;99.90;;;11.69;100.00;97875.25;5006041;28;20025;-65
2022/10/29 05:57:58;;;;;;;9.35;4.32;;;12.10;99.90;;;11.65;100.00;97877.13;5007230;28;20076;-65
2022/10/29 06:00:26;;;;;;;8.13;3.78;;;12.00;99.90;;;11.68;100.00;97884.06;5017413;23;20041;-55
2022/10/29 06:02:52;;;;;;;8.55;4.00;;;12.00;99.90;;;11.65;100.00;97885.06;5012591;28;20057;-56
2022/10/29 06:05:18;;;;;;;7.82;4.32;;;12.00;99.90;;;11.65;100.00;97891.19;4997275;28;20116;-56
2022/10/29 06:07:44;;;;;;;7.25;4.00;;;12.00;99.90;;;11.65;100.00;97885.91;4997854;28;20033;-56
2022/10/29 06:10:09;;;;;;;6.22;3.88;;;12.00;99.90;;;11.64;100.00;97889.47;5004330;28;20040;-55
2022/10/29 06:12:35;;;;;;;7.00;3.90;;;12.00;99.90;;;11.64;100.00;97891.25;5015355;28;20065;-56
2022/10/29 06:15:01;;;;;;;12.65;4.50;;;12.00;99.90;;;11.67;100.00;97892.94;5018249;28;20026;-55
2022/10/29 06:17:26;;;;;;;10.35;4.18;;;12.00;99.90;;;11.67;100.00;97895.56;5018432;28;20029;-56
2022/10/29 06:19:52;;;;;;;8.98;4.40;;;12.00;99.90;;;11.64;100.00;97878.03;5016616;28;20238;-56
2022/10/29 06:22:18;;;;;;;10.20;4.07;;;12.10;99.90;;;11.54;100.00;97874.84;5015526;28;20176;-56
2022/10/29 06:24:44;;;;;;;9.57;4.78;;;12.00;99.90;;;11.70;100.00;97898.97;5016701;28;20032;-56
2022/10/29 06:27:09;;;;;;;10.23;4.40;;;12.10;99.90;;;11.71;100.00;97905.13;5016485;28;20028;-55
2022/10/29 06:29:35;;;;;;;6.80;3.80;;;12.10;99.90;;;11.69;100.00;97891.09;5014843;28;20505;-56
2022/10/29 06:32:01;;;;;;;8.95;4.18;;;12.10;99.90;;;11.73;100.00;97901.50;5017816;28;20243;-56
2022/10/29 06:34:26;;;;;;;9.45;4.18;;;12.10;99.90;;;11.72;100.00;97893.63;5032336;28;20464;-55
2022/10/29 06:36:52;;;;;;;9.70;4.65;;;12.10;99.90;;;11.79;100.00;97900.41;5018047;28;20033;-55
2022/10/29 06:39:18;;;;;;;8.02;4.07;;;12.20;99.90;;;11.82;100.00;97897.69;5015365;28;20041;-55
2022/10/29 06:41:43;;;;;;;9.10;4.35;;;12.20;99.90;;;11.84;100.00;97896.75;5016977;28;20578;-56
2022/10/29 06:44:09;;;;;;;9.38;4.53;;;12.20;99.90;;;11.86;100.00;97896.66;5016725;28;20034;-56
2022/10/29 06:46:35;;;;;;;10.75;4.03;;;12.20;99.90;;;11.89;100.00;97896.56;5014581;28;20029;-56
2022/10/29 06:49:01;;;;;;;8.18;4.30;;;12.30;99.90;;;11.94;100.00;97894.66;5016706;28;20026;-56
2022/10/29 06:51:27;;;;;;;9.77;4.43;;;12.30;99.90;;;11.97;100.00;97902.50;5017091;28;20021;-56
2022/10/29 06:53:53;;;;;;;15.18;4.35;;;12.30;99.90;;;11.95;100.00;97892.88;5014669;28;20124;-55
2022/10/29 06:56:20;;;;;;;6.88;4.28;;;12.30;99.90;;;12.01;100.00;97896.16;5015128;28;20013;-55
2022/10/29 06:58:46;;;;;;;10.52;4.25;;;12.40;99.90;;;12.05;100.00;97904.00;5017786;28;20147;-55
2022/10/29 07:01:12;;;;;;;10.27;3.83;;;12.40;99.90;;;12.10;100.00;97899.44;5018028;28;20048;-56
2022/10/29 07:03:37;;;;;;;9.98;4.50;;;12.40;99.90;;;12.14;100.00;97901.03;5015271;28;20476;-55
2022/10/29 07:06:03;;;;;;;8.45;4.32;;;12.50;99.90;;;12.19;100.00;97897.31;5015233;28;20049;-56
2022/10/29 07:08:29;;;;;;;8.10;4.05;;;12.50;99.90;;;12.26;100.00;97903.25;5017737;28;20044;-55
2022/10/29 07:10:55;;;;;;;6.65;3.60;;;12.60;99.90;;;12.32;100.00;97905.66;5015931;28;20763;-57
2022/10/29 07:13:21;;;;;;;8.73;4.30;;;12.70;99.90;;;12.36;100.00;97904.66;5014292;28;20383;-57
2022/10/29 07:15:47;;;;;;;7.55;3.47;;;12.80;99.90;;;12.46;100.00;97899.03;5016089;28;20038;-56
2022/10/29 07:18:13;;;;;;;5.35;3.70;;;12.80;99.90;;;12.52;100.00;97907.56;5016460;28;20033;-55
2022/10/29 07:20:42;;;;;;;11.73;4.60;;;12.90;99.90;;;12.59;100.00;97905.56;5017016;28;20026;-56
2022/10/29 07:23:09;;;;;;;7.60;3.90;;;12.90;99.90;;;12.67;100.00;97903.53;5016813;28;20201;-57
2022/10/29 07:25:36;;;;;;;9.60;3.95;;;13.00;99.90;;;12.76;100.00;97913.75;5015647;28;20514;-55
2022/10/29 07:28:11;;;;;;;10.63;4.22;;;13.20;99.90;;;12.88;100.00;97906.25;5015543;28;20099;-57
2022/10/29 07:30:37;;;;;;;10.27;4.18;;;13.20;99.90;;;13.02;100.00;97911.91;5014569;28;20116;-55
2022/10/29 07:33:02;;;;;;;10.95;4.47;;;13.40;99.90;;;13.13;100.00;97907.03;5019047;28;20026;-56
2022/10/29 07:35:28;;;;;;;9.90;4.38;;;13.50;99.90;;;13.24;100.00;97911.91;5019065;28;20088;-57
2022/10/29 07:38:02;;;;;;;7.55;4.07;;;13.60;99.90;;;13.36;100.00;97913.25;5022455;28;20531;-57
2022/10/29 07:40:28;;;;;;;11.68;4.20;;;13.70;99.90;;;13.46;100.00;97916.38;5017475;28;20033;-57
2022/10/29 07:42:54;;;;;;;15.38;4.63;;;13.80;99.90;;;13.56;100.00;97918.59;5020614;28;20033;-56
2022/10/29 07:45:20;;;;;;;11.40;4.30;;;13.90;99.90;;;13.67;100.00;97917.31;5019408;28;20087;-57
2022/10/29 07:47:46;;;;;;;18.33;4.70;;;14.00;99.90;;;13.62;100.00;97895.44;5020088;28;20030;-57
2022/10/29 07:50:12;;;;;;;10.70;4.50;;;14.10;99.90;;;13.88;100.00;97931.47;5019804;28;20028;-57
2022/10/29 07:52:39;;;;;;;7.95;3.97;;;14.20;99.90;;;13.94;100.00;97921.47;5019973;28;20116;-56
2022/10/29 07:55:07;;;;;;;12.10;4.60;;;14.30;99.90;;;14.06;100.00;97925.38;5018255;28;20111;-56
2022/10/29 07:57:32;;;;;;;10.80;4.00;;;14.50;99.90;;;14.20;100.00;97937.19;5017474;28;20025;-56
2022/10/29 07:59:58;;;;;;;6.82;3.35;;;14.60;99.90;;;14.31;100.00;97937.59;5020630;28;20379;-57
2022/10/29 08:02:24;;;;;;;11.35;4.00;;;14.70;99.90;;;14.48;100.00;97937.72;5019387;28;20065;-57
2022/10/29 08:04:50;;;;;;;8.93;3.72;;;14.90;99.90;;;14.67;100.00;97934.28;5018679;28;20488;-57
2022/10/29 08:07:15;;;;;;;9.43;3.70;;;15.10;99.90;;;14.86;100.00;97939.63;5017991;28;20022;-57
2022/10/29 08:09:41;;;;;;;11.02;4.50;;;15.20;99.90;;;15.04;100.00;97927.28;5017311;28;20112;-57
2022/10/29 08:12:09;;;;;;;9.85;4.75;;;15.40;99.90;;;15.27;100.00;97932.38;5020508;28;20030;-57
2022/10/29 08:14:35;;;;;;;13.55;4.63;;;15.60;99.90;;;15.47;100.00;97927.91;5020034;28;20026;-57
2022/10/29 08:17:01;;;;;;;9.77;4.40;;;15.90;99.90;;;15.70;100.00;97933.88;5019881;28;20541;-56
2022/10/29 08:19:28;;;;;;;11.98;5.00;;;16.10;99.90;;;15.78;100.00;97910.47;5020174;28;20511;-57
2022/10/29 08:21:55;;;;;;;10.15;4.03;;;16.40;99.90;;;16.12;100.00;97941.56;5018056;28;20021;-56
2022/10/29 08:24:21;;;;;;;12.20;4.20;;;16.50;99.90;;;16.31;100.00;97938.84;5018151;28;20120;-56
2022/10/29 08:26:48;;;;;;;12.00;4.13;;;16.70;99.90;;;16.50;100.00;97944.03;5018018;28;20036;-56
2022/10/29 08:29:14;;;;;;;10.43;4.22;;;16.90;99.90;;;16.64;100.00;97940.66;5020155;28;20037;-57
2022/10/29 08:31:40;;;;;;;16.58;4.28;;;17.00;99.90;;;16.75;100.00;97937.44;5016745;28;20356;-57
2022/10/29 08:34:05;;;;;;;9.93;4.53;;;17.10;99.90;;;16.88;100.00;97933.19;5020638;28;20034;-56
2022/10/29 08:36:31;;;;;;;9.95;4.55;;;17.20;99.90;;;16.86;100.00;97932.41;5019050;28;20407;-55
2022/10/29 08:38:57;;;;;;;10.07;4.18;;;17.30;99.90;;;16.93;100.00;97938.28;5018542;28;20073;-56
2022/10/29 08:41:59;;;;;;;7.38;3.38;;;17.20;99.90;;;16.95;100.00;97934.56;5019538;28;20021;-57
2022/10/29 08:44:36;;;;;;;9.33;4.30;;;17.20;99.90;;;16.95;100.00;97931.06;5019315;28;20033;-57
2022/10/29 08:47:12;;;;;;;9.40;4.00;;;17.30;99.90;;;16.95;100.00;97933.72;5016722;28;20265;-57
2022/10/29 08:49:54;;;;;;;10.40;3.83;;;17.20;99.90;;;16.89;100.00;97932.25;5018026;28;20068;-57
2022/10/29 08:52:26;;;;;;;9.60;3.67;;;17.20;99.90;;;16.86;100.00;97932.41;5017029;28;20071;-57
2022/10/29 08:55:07;;;;;;;6.82;3.55;;;17.20;99.90;;;16.85;100.00;97930.72;5017333;28;20025;-57
2022/10/29 08:57:43;;;;;;;10.60;4.18;;;17.10;99.90;;;16.84;100.00;97928.97;5000183;28;20044;-57
2022/10/29 09:00:19;;;;;;;14.95;5.10;;;17.10;99.90;;;16.82;100.00;97925.50;5037576;28;20029;-57
2022/10/29 09:02:45;;;;;;;10.98;4.55;;;17.10;99.90;;;16.66;100.00;97909.47;5019819;28;20130;-57
2022/10/29 09:05:14;;;;;;;8.05;3.30;;;17.10;99.90;;;16.83;100.00;97937.00;5016312;28;20124;-57
2022/10/29 09:08:00;;;;;;;12.35;3.50;;;17.10;99.90;;;16.84;100.00;97933.44;5019458;28;20427;-56
2022/10/29 09:10:43;;;;;;;11.07;4.13;;;17.10;99.90;;;16.80;100.00;97943.38;5019671;28;20037;-57
2022/10/29 09:13:32;;;;;;;;;;;17.10;99.90;;;16.86;100.00;97936.88;5022767;28;20467;-57
2022/10/29 09:16:25;;;;;;;8.65;3.53;;;17.10;99.90;;;16.90;100.00;97936.63;5014382;28;19959;-57
2022/10/29 09:19:42;;;;;;;13.18;3.33;;;17.20;99.90;;;17.00;100.00;97933.47;5016672;28;20048;-57
2022/10/29 09:22:39;;;;;;;5.20;3.20;;;17.30;99.90;;;17.06;100.00;97930.47;5017049;28;20060;-57
2022/10/29 09:25:30;;;;;;;9.05;3.33;;;17.30;99.90;;;17.14;100.00;97926.44;5017919;28;20048;-57
2022/10/29 09:28:50;;;;;;;9.05;3.58;;;17.40;99.90;;;17.24;100.00;97915.28;5014348;28;20144;-57
2022/10/29 09:31:35;;;;;;;8.77;3.15;;;17.50;99.90;;;17.36;100.00;97918.09;5008498;28;20037;-57
2022/10/29 09:34:11;;;;;;;4.65;2.90;;;17.60;99.90;;;17.49;100.00;97915.59;5013756;28;20053;-57
2022/10/29 09:36:37;;;;;;;9.10;3.53;;;17.70;99.90;;;17.59;100.00;97920.44;5017966;28;20034;-57
2022/10/29 09:39:11;;;;;;;10.85;4.47;;;17.80;99.90;;;17.65;100.00;97915.59;5014521;28;20095;-57
2022/10/29 09:41:38;;;;;;;6.28;3.20;;;17.90;99.90;;;17.77;100.00;97915.84;5036724;28;20030;-57
2022/10/29 09:44:22;;;;;;;6.75;3.65;;;18.10;99.90;;;17.88;100.00;97921.44;5013842;28;20033;-54
2022/10/29 09:47:19;;;;;;;6.82;3.50;;;18.10;99.90;;;17.96;100.00;97912.97;5032407;28;20158;-54
2022/10/29 09:49:58;;;;;;;13.48;4.00;;;18.20;99.90;;;18.05;100.00;97918.66;4996092;28;20511;-54
2022/10/29 09:52:32;;;;;;;13.10;3.90;;;18.30;99.90;;;18.13;100.00;97916.38;5016400;28;20037;-54
2022/10/29 09:54:59;;;;;;;13.45;3.83;;;18.40;99.90;;;18.22;100.00;97919.47;5013749;28;20030;-53
2022/10/29 09:57:28;;;;;;;13.35;3.30;;;18.50;99.90;;;18.30;100.00;97917.16;5020217;28;20060;-54
2022/10/29 10:00:15;;;;;;;8.65;3.67;;;18.60;99.90;;;18.37;100.00;97910.50;5020848;28;20035;-54
2022/10/29 10:02:44;;;;;;;7.53;3.00;;;18.70;99.90;;;18.47;100.00;97917.03;5021302;28;20036;-54
2022/10/29 10:05:14;;;;;;;9.40;3.25;;;18.70;99.90;;;18.54;100.00;97911.28;5014613;28;20033;-54
2022/10/29 10:07:40;;;;;;;10.73;3.65;;;18.80;99.90;;;18.61;99.54;97912.63;5017300;28;20026;-54
2022/10/29 10:10:20;;;;;;;9.27;3.60;;;18.90;99.90;;;18.70;98.72;97912.09;5014820;28;20037;-55
2022/10/29 10:12:49;;;;;;;9.55;3.40;;;19.00;99.90;;;18.83;94.89;97909.53;5017370;28;20073;-53
2022/10/29 10:15:14;;;;;;;14.45;3.67;;;19.10;99.90;;;18.99;93.22;97912.13;5018938;28;20391;-55
2022/10/29 10:18:05;;;;;;;7.57;3.55;;;19.20;99.90;;;19.16;92.66;97911.88;5018172;28;20029;-54
2022/10/29 10:20:44;;;;;;;22.63;8.55;;;19.40;99.90;;;19.27;94.23;97901.38;5015598;28;20033;-57
2022/10/29 10:23:24;;;;;;;12.88;5.00;;;19.50;99.90;;;19.32;93.34;97909.09;5020028;28;20398;-57
2022/10/29 10:25:56;;;;;;;13.55;4.22;;;19.60;99.90;;;19.35;92.55;97903.56;5016208;28;20472;-57